sensor_id;sensor_type;location;lat;lon;timestamp;P1;durP1;ratioP1;P2;durP2;ratioP2
56667;SDS011;42542;48.360;10.958;2023-02-17T00:01:12;14.30;;;5.47;;
56667;SDS011;42542;48.360;10.958;2023-02-17T00:04:14;13.30;;;4.90;;
56667;SDS011;42542;48.360;10.958;2023-02-17T00:07:16;12.65;;;5.07;;
56667;SDS011;42542;48.360;10.958;2023-02-17T00:10:17;14.57;;;5.10;;
56667;SDS011;42542;48.360;10.958;2023-02-17T00:13:19;13.73;;;5.03;;
56667;SDS011;42542;48.360;10.958;2023-02-17T00:16:21;12.68;;;5.05;;
56667;SDS011;42542;48.360;10.958;2023-02-17T00:19:25;12.85;;;4.65;;
56667;SDS011;42542;48.360;10.958;2023-02-17T00:22:26;14.02;;;5.50;;
56667;SDS011;42542;48.360;10.958;2023-02-17T00:25:28;14.87;;;5.57;;
56667;SDS011;42542;48.360;10.958;2023-02-17T00:28:30;16.23;;;5.75;;
56667;SDS011;42542;48.360;10.958;2023-02-17T00:31:31;15.68;;;6.22;;
56667;SDS011;42542;48.360;10.958;2023-02-17T00:34:33;16.77;;;6.90;;
56667;SDS011;42542;48.360;10.958;2023-02-17T00:37:35;16.33;;;6.63;;
56667;SDS011;42542;48.360;10.958;2023-02-17T00:40:36;17.92;;;7.15;;
56667;SDS011;42542;48.360;10.958;2023-02-17T00:43:39;19.23;;;7.68;;
56667;SDS011;42542;48.360;10.958;2023-02-17T00:46:40;16.17;;;6.70;;
56667;SDS011;42542;48.360;10.958;2023-02-17T00:49:42;15.65;;;5.95;;
56667;SDS011;42542;48.360;10.958;2023-02-17T00:52:44;16.23;;;5.22;;
56667;SDS011;42542;48.360;10.958;2023-02-17T00:55:45;15.83;;;5.43;;
56667;SDS011;42542;48.360;10.958;2023-02-17T00:58:47;12.98;;;5.10;;
56667;SDS011;42542;48.360;10.958;2023-02-17T01:01:50;14.68;;;5.03;;
56667;SDS011;42542;48.360;10.958;2023-02-17T01:04:51;12.37;;;4.60;;
56667;SDS011;42542;48.360;10.958;2023-02-17T01:07:54;15.60;;;5.13;;
56667;SDS011;42542;48.360;10.958;2023-02-17T01:10:56;13.77;;;5.35;;
56667;SDS011;42542;48.360;10.958;2023-02-17T01:13:58;14.02;;;5.40;;
56667;SDS011;42542;48.360;10.958;2023-02-17T01:17:01;14.48;;;4.63;;
56667;SDS011;42542;48.360;10.958;2023-02-17T01:20:03;14.00;;;5.03;;
56667;SDS011;42542;48.360;10.958;2023-02-17T01:23:06;11.48;;;4.70;;
56667;SDS011;42542;48.360;10.958;2023-02-17T01:26:13;12.97;;;4.80;;
56667;SDS011;42542;48.360;10.958;2023-02-17T01:29:16;13.45;;;4.95;;
56667;SDS011;42542;48.360;10.958;2023-02-17T01:32:17;12.68;;;4.63;;
56667;SDS011;42542;48.360;10.958;2023-02-17T01:35:20;13.00;;;5.10;;
56667;SDS011;42542;48.360;10.958;2023-02-17T01:38:22;19.75;;;5.53;;
56667;SDS011;42542;48.360;10.958;2023-02-17T01:41:24;13.60;;;5.18;;
56667;SDS011;42542;48.360;10.958;2023-02-17T01:44:30;12.60;;;4.68;;
56667;SDS011;42542;48.360;10.958;2023-02-17T01:47:33;14.82;;;5.35;;
56667;SDS011;42542;48.360;10.958;2023-02-17T01:50:40;13.15;;;5.03;;
56667;SDS011;42542;48.360;10.958;2023-02-17T01:56:53;14.67;;;4.53;;
56667;SDS011;42542;48.360;10.958;2023-02-17T01:59:57;11.32;;;4.30;;
56667;SDS011;42542;48.360;10.958;2023-02-17T02:02:59;16.25;;;4.43;;
56667;SDS011;42542;48.360;10.958;2023-02-17T02:06:15;12.80;;;4.53;;
56667;SDS011;42542;48.360;10.958;2023-02-17T02:09:30;13.85;;;4.32;;
56667;SDS011;42542;48.360;10.958;2023-02-17T02:12:37;13.27;;;4.20;;
56667;SDS011;42542;48.360;10.958;2023-02-17T02:16:06;12.18;;;4.20;;
56667;SDS011;42542;48.360;10.958;2023-02-17T02:36:38;14.32;;;4.55;;
56667;SDS011;42542;48.360;10.958;2023-02-17T02:39:46;14.10;;;4.30;;
56667;SDS011;42542;48.360;10.958;2023-02-17T02:42:51;12.45;;;4.28;;
56667;SDS011;42542;48.360;10.958;2023-02-17T02:45:53;11.30;;;4.07;;
56667;SDS011;42542;48.360;10.958;2023-02-17T02:48:56;12.50;;;3.83;;
56667;SDS011;42542;48.360;10.958;2023-02-17T02:52:05;14.88;;;4.18;;
56667;SDS011;42542;48.360;10.958;2023-02-17T02:58:56;12.65;;;4.00;;
56667;SDS011;42542;48.360;10.958;2023-02-17T03:12:10;11.87;;;3.83;;
56667;SDS011;42542;48.360;10.958;2023-02-17T03:15:28;9.80;;;3.80;;
56667;SDS011;42542;48.360;10.958;2023-02-17T03:18:35;11.27;;;4.15;;
56667;SDS011;42542;48.360;10.958;2023-02-17T03:21:38;11.77;;;4.05;;
56667;SDS011;42542;48.360;10.958;2023-02-17T03:24:44;10.82;;;4.00;;
56667;SDS011;42542;48.360;10.958;2023-02-17T03:27:45;11.68;;;3.80;;
56667;SDS011;42542;48.360;10.958;2023-02-17T03:30:48;12.88;;;4.20;;
56667;SDS011;42542;48.360;10.958;2023-02-17T03:33:49;11.83;;;3.70;;
56667;SDS011;42542;48.360;10.958;2023-02-17T03:36:51;10.23;;;4.18;;
56667;SDS011;42542;48.360;10.958;2023-02-17T03:39:53;13.30;;;4.35;;
56667;SDS011;42542;48.360;10.958;2023-02-17T03:42:55;12.53;;;4.27;;
56667;SDS011;42542;48.360;10.958;2023-02-17T03:45:57;14.73;;;4.85;;
56667;SDS011;42542;48.360;10.958;2023-02-17T03:48:59;13.48;;;4.20;;
56667;SDS011;42542;48.360;10.958;2023-02-17T03:52:01;13.73;;;4.45;;
56667;SDS011;42542;48.360;10.958;2023-02-17T03:55:02;10.00;;;3.97;;
56667;SDS011;42542;48.360;10.958;2023-02-17T03:58:04;11.70;;;4.22;;
56667;SDS011;42542;48.360;10.958;2023-02-17T04:01:06;16.65;;;4.30;;
56667;SDS011;42542;48.360;10.958;2023-02-17T04:04:09;10.37;;;3.90;;
56667;SDS011;42542;48.360;10.958;2023-02-17T04:07:11;11.65;;;4.00;;
56667;SDS011;42542;48.360;10.958;2023-02-17T04:10:13;12.32;;;4.20;;
56667;SDS011;42542;48.360;10.958;2023-02-17T04:13:14;15.00;;;4.30;;
56667;SDS011;42542;48.360;10.958;2023-02-17T04:16:16;11.50;;;4.15;;
56667;SDS011;42542;48.360;10.958;2023-02-17T04:19:18;11.15;;;4.07;;
56667;SDS011;42542;48.360;10.958;2023-02-17T04:22:21;11.30;;;4.10;;
56667;SDS011;42542;48.360;10.958;2023-02-17T04:25:23;8.45;;;3.53;;
56667;SDS011;42542;48.360;10.958;2023-02-17T04:28:24;11.00;;;3.80;;
56667;SDS011;42542;48.360;10.958;2023-02-17T04:31:26;12.32;;;3.70;;
56667;SDS011;42542;48.360;10.958;2023-02-17T04:34:28;10.97;;;3.73;;
56667;SDS011;42542;48.360;10.958;2023-02-17T04:37:30;11.55;;;3.47;;
56667;SDS011;42542;48.360;10.958;2023-02-17T04:40:32;10.52;;;3.90;;
56667;SDS011;42542;48.360;10.958;2023-02-17T04:43:33;9.70;;;3.60;;
56667;SDS011;42542;48.360;10.958;2023-02-17T04:46:35;8.43;;;3.40;;
56667;SDS011;42542;48.360;10.958;2023-02-17T04:49:37;12.43;;;3.90;;
56667;SDS011;42542;48.360;10.958;2023-02-17T04:52:38;10.60;;;3.65;;
56667;SDS011;42542;48.360;10.958;2023-02-17T04:55:40;11.13;;;3.70;;
56667;SDS011;42542;48.360;10.958;2023-02-17T04:58:42;8.57;;;3.40;;
56667;SDS011;42542;48.360;10.958;2023-02-17T05:01:44;10.07;;;3.55;;
56667;SDS011;42542;48.360;10.958;2023-02-17T05:04:46;12.50;;;3.60;;
56667;SDS011;42542;48.360;10.958;2023-02-17T05:07:48;10.32;;;3.70;;
56667;SDS011;42542;48.360;10.958;2023-02-17T05:10:50;11.52;;;3.53;;
56667;SDS011;42542;48.360;10.958;2023-02-17T05:13:52;9.53;;;3.50;;
56667;SDS011;42542;48.360;10.958;2023-02-17T05:16:54;10.98;;;4.30;;
56667;SDS011;42542;48.360;10.958;2023-02-17T05:19:56;12.27;;;3.67;;
56667;SDS011;42542;48.360;10.958;2023-02-17T05:22:57;9.82;;;3.85;;
56667;SDS011;42542;48.360;10.958;2023-02-17T05:25:59;11.10;;;3.95;;
56667;SDS011;42542;48.360;10.958;2023-02-17T05:29:00;9.80;;;3.58;;
56667;SDS011;42542;48.360;10.958;2023-02-17T05:32:02;10.35;;;3.70;;
56667;SDS011;42542;48.360;10.958;2023-02-17T05:35:04;10.00;;;3.40;;
56667;SDS011;42542;48.360;10.958;2023-02-17T05:38:06;10.95;;;4.10;;
56667;SDS011;42542;48.360;10.958;2023-02-17T05:41:07;10.85;;;3.95;;
56667;SDS011;42542;48.360;10.958;2023-02-17T05:44:09;10.97;;;4.20;;
56667;SDS011;42542;48.360;10.958;2023-02-17T05:47:11;10.60;;;4.00;;
56667;SDS011;42542;48.360;10.958;2023-02-17T05:50:12;12.55;;;3.90;;
56667;SDS011;42542;48.360;10.958;2023-02-17T05:53:14;12.30;;;3.75;;
56667;SDS011;42542;48.360;10.958;2023-02-17T05:56:16;11.98;;;3.90;;
56667;SDS011;42542;48.360;10.958;2023-02-17T05:59:17;10.98;;;3.72;;
56667;SDS011;42542;48.360;10.958;2023-02-17T06:02:19;12.73;;;3.85;;
56667;SDS011;42542;48.360;10.958;2023-02-17T06:05:21;12.20;;;3.57;;
56667;SDS011;42542;48.360;10.958;2023-02-17T06:08:23;12.27;;;4.32;;
56667;SDS011;42542;48.360;10.958;2023-02-17T06:11:24;13.23;;;3.75;;
56667;SDS011;42542;48.360;10.958;2023-02-17T06:14:26;11.20;;;4.00;;
56667;SDS011;42542;48.360;10.958;2023-02-17T06:17:28;11.05;;;3.60;;
56667;SDS011;42542;48.360;10.958;2023-02-17T06:20:29;12.55;;;3.88;;
56667;SDS011;42542;48.360;10.958;2023-02-17T06:23:31;11.10;;;3.85;;
56667;SDS011;42542;48.360;10.958;2023-02-17T06:26:33;12.93;;;4.10;;
56667;SDS011;42542;48.360;10.958;2023-02-17T06:29:35;11.13;;;3.83;;
56667;SDS011;42542;48.360;10.958;2023-02-17T06:32:37;9.70;;;3.90;;
56667;SDS011;42542;48.360;10.958;2023-02-17T06:35:38;12.13;;;3.50;;
56667;SDS011;42542;48.360;10.958;2023-02-17T06:38:40;11.40;;;3.63;;
56667;SDS011;42542;48.360;10.958;2023-02-17T06:41:41;11.55;;;3.33;;
56667;SDS011;42542;48.360;10.958;2023-02-17T06:44:43;9.43;;;3.27;;
56667;SDS011;42542;48.360;10.958;2023-02-17T06:47:45;12.25;;;3.65;;
56667;SDS011;42542;48.360;10.958;2023-02-17T06:50:47;8.57;;;3.50;;
56667;SDS011;42542;48.360;10.958;2023-02-17T06:53:49;13.80;;;4.10;;
56667;SDS011;42542;48.360;10.958;2023-02-17T06:56:51;13.23;;;3.90;;
56667;SDS011;42542;48.360;10.958;2023-02-17T06:59:52;11.02;;;4.95;;
56667;SDS011;42542;48.360;10.958;2023-02-17T07:02:54;10.48;;;3.90;;
56667;SDS011;42542;48.360;10.958;2023-02-17T07:05:56;13.67;;;3.97;;
56667;SDS011;42542;48.360;10.958;2023-02-17T07:08:59;9.38;;;3.20;;
56667;SDS011;42542;48.360;10.958;2023-02-17T07:12:01;11.35;;;3.50;;
56667;SDS011;42542;48.360;10.958;2023-02-17T07:15:03;11.00;;;3.60;;
56667;SDS011;42542;48.360;10.958;2023-02-17T07:18:05;9.93;;;3.70;;
56667;SDS011;42542;48.360;10.958;2023-02-17T07:21:08;11.13;;;3.97;;
56667;SDS011;42542;48.360;10.958;2023-02-17T07:24:10;12.82;;;3.88;;
56667;SDS011;42542;48.360;10.958;2023-02-17T07:27:13;12.50;;;3.70;;
56667;SDS011;42542;48.360;10.958;2023-02-17T07:30:15;10.73;;;4.05;;
56667;SDS011;42542;48.360;10.958;2023-02-17T07:33:17;12.02;;;3.65;;
56667;SDS011;42542;48.360;10.958;2023-02-17T07:36:18;11.33;;;3.63;;
56667;SDS011;42542;48.360;10.958;2023-02-17T07:39:20;11.35;;;3.55;;
56667;SDS011;42542;48.360;10.958;2023-02-17T07:42:21;11.32;;;3.63;;
56667;SDS011;42542;48.360;10.958;2023-02-17T07:45:24;9.23;;;3.30;;
56667;SDS011;42542;48.360;10.958;2023-02-17T07:48:26;10.60;;;3.70;;
56667;SDS011;42542;48.360;10.958;2023-02-17T07:51:28;12.93;;;3.63;;
56667;SDS011;42542;48.360;10.958;2023-02-17T07:54:29;10.52;;;3.47;;
56667;SDS011;42542;48.360;10.958;2023-02-17T07:57:31;9.05;;;3.50;;
56667;SDS011;42542;48.360;10.958;2023-02-17T08:00:32;10.05;;;3.60;;
56667;SDS011;42542;48.360;10.958;2023-02-17T08:03:34;12.38;;;3.40;;
56667;SDS011;42542;48.360;10.958;2023-02-17T08:06:36;10.97;;;3.90;;
56667;SDS011;42542;48.360;10.958;2023-02-17T08:09:40;14.80;;;3.80;;
56667;SDS011;42542;48.360;10.958;2023-02-17T08:13:00;9.23;;;3.50;;
56667;SDS011;42542;48.360;10.958;2023-02-17T08:16:28;10.73;;;3.70;;
56667;SDS011;42542;48.360;10.958;2023-02-17T08:19:29;9.75;;;3.45;;
56667;SDS011;42542;48.360;10.958;2023-02-17T08:22:47;8.82;;;3.05;;
56667;SDS011;42542;48.360;10.958;2023-02-17T08:25:49;13.30;;;3.67;;
56667;SDS011;42542;48.360;10.958;2023-02-17T08:28:51;11.48;;;3.58;;
56667;SDS011;42542;48.360;10.958;2023-02-17T08:31:53;10.82;;;3.28;;
56667;SDS011;42542;48.360;10.958;2023-02-17T08:34:55;11.35;;;3.70;;
56667;SDS011;42542;48.360;10.958;2023-02-17T08:37:57;9.93;;;3.27;;
56667;SDS011;42542;48.360;10.958;2023-02-17T08:40:58;10.48;;;3.70;;
56667;SDS011;42542;48.360;10.958;2023-02-17T08:44:02;9.38;;;3.33;;
56667;SDS011;42542;48.360;10.958;2023-02-17T08:47:07;9.00;;;3.33;;
56667;SDS011;42542;48.360;10.958;2023-02-17T08:50:10;9.50;;;3.30;;
56667;SDS011;42542;48.360;10.958;2023-02-17T08:53:16;8.18;;;3.28;;
56667;SDS011;42542;48.360;10.958;2023-02-17T08:56:18;9.40;;;3.00;;
56667;SDS011;42542;48.360;10.958;2023-02-17T08:59:21;8.65;;;2.95;;
56667;SDS011;42542;48.360;10.958;2023-02-17T09:02:22;11.98;;;2.90;;
56667;SDS011;42542;48.360;10.958;2023-02-17T09:05:24;8.52;;;3.17;;
56667;SDS011;42542;48.360;10.958;2023-02-17T09:08:26;9.20;;;3.20;;
56667;SDS011;42542;48.360;10.958;2023-02-17T09:11:28;11.05;;;2.85;;
56667;SDS011;42542;48.360;10.958;2023-02-17T09:14:29;9.30;;;3.30;;
56667;SDS011;42542;48.360;10.958;2023-02-17T09:17:31;9.17;;;2.83;;
56667;SDS011;42542;48.360;10.958;2023-02-17T09:20:33;10.10;;;2.90;;
56667;SDS011;42542;48.360;10.958;2023-02-17T09:23:34;12.40;;;3.20;;
56667;SDS011;42542;48.360;10.958;2023-02-17T09:26:36;8.73;;;3.03;;
56667;SDS011;42542;48.360;10.958;2023-02-17T09:29:38;8.15;;;2.75;;
56667;SDS011;42542;48.360;10.958;2023-02-17T09:32:41;10.40;;;3.30;;
56667;SDS011;42542;48.360;10.958;2023-02-17T09:35:43;9.23;;;3.28;;
56667;SDS011;42542;48.360;10.958;2023-02-17T09:38:46;10.77;;;2.97;;
56667;SDS011;42542;48.360;10.958;2023-02-17T09:41:49;10.88;;;3.25;;
56667;SDS011;42542;48.360;10.958;2023-02-17T09:44:58;9.57;;;2.92;;
56667;SDS011;42542;48.360;10.958;2023-02-17T09:48:05;10.40;;;3.33;;
56667;SDS011;42542;48.360;10.958;2023-02-17T09:54:36;9.63;;;3.30;;
56667;SDS011;42542;48.360;10.958;2023-02-17T09:57:41;10.18;;;3.15;;
56667;SDS011;42542;48.360;10.958;2023-02-17T10:01:03;10.60;;;3.13;;
56667;SDS011;42542;48.360;10.958;2023-02-17T10:04:11;8.80;;;3.20;;
56667;SDS011;42542;48.360;10.958;2023-02-17T10:07:29;9.55;;;3.20;;
56667;SDS011;42542;48.360;10.958;2023-02-17T10:13:54;9.65;;;3.10;;
56667;SDS011;42542;48.360;10.958;2023-02-17T10:17:02;9.13;;;3.05;;
56667;SDS011;42542;48.360;10.958;2023-02-17T10:20:13;9.10;;;2.80;;
56667;SDS011;42542;48.360;10.958;2023-02-17T10:23:19;7.88;;;2.90;;
56667;SDS011;42542;48.360;10.958;2023-02-17T10:26:33;8.13;;;2.70;;
56667;SDS011;42542;48.360;10.958;2023-02-17T10:33:24;8.18;;;2.85;;
56667;SDS011;42542;48.360;10.958;2023-02-17T10:36:54;8.68;;;2.80;;
56667;SDS011;42542;48.360;10.958;2023-02-17T10:40:00;9.95;;;2.90;;
56667;SDS011;42542;48.360;10.958;2023-02-17T10:43:07;8.67;;;3.07;;
56667;SDS011;42542;48.360;10.958;2023-02-17T10:46:11;9.70;;;2.70;;
56667;SDS011;42542;48.360;10.958;2023-02-17T10:49:17;8.13;;;2.80;;
56667;SDS011;42542;48.360;10.958;2023-02-17T10:52:35;9.68;;;3.20;;
56667;SDS011;42542;48.360;10.958;2023-02-17T10:55:43;9.47;;;2.90;;
56667;SDS011;42542;48.360;10.958;2023-02-17T11:02:20;7.72;;;2.80;;
56667;SDS011;42542;48.360;10.958;2023-02-17T11:05:41;9.43;;;3.30;;
56667;SDS011;42542;48.360;10.958;2023-02-17T11:08:44;8.77;;;3.00;;
56667;SDS011;42542;48.360;10.958;2023-02-17T11:12:01;10.55;;;3.00;;
56667;SDS011;42542;48.360;10.958;2023-02-17T11:15:13;8.77;;;3.10;;
56667;SDS011;42542;48.360;10.958;2023-02-17T11:18:24;11.20;;;3.22;;
56667;SDS011;42542;48.360;10.958;2023-02-17T11:21:30;10.60;;;3.20;;
56667;SDS011;42542;48.360;10.958;2023-02-17T11:24:36;9.80;;;3.00;;
56667;SDS011;42542;48.360;10.958;2023-02-17T11:27:38;8.25;;;2.97;;
56667;SDS011;42542;48.360;10.958;2023-02-17T11:30:47;9.03;;;3.10;;
56667;SDS011;42542;48.360;10.958;2023-02-17T11:33:50;10.55;;;2.90;;
56667;SDS011;42542;48.360;10.958;2023-02-17T11:36:56;8.38;;;2.97;;
56667;SDS011;42542;48.360;10.958;2023-02-17T11:40:24;8.95;;;2.70;;
56667;SDS011;42542;48.360;10.958;2023-02-17T11:43:29;8.90;;;3.10;;
56667;SDS011;42542;48.360;10.958;2023-02-17T12:02:27;7.95;;;2.80;;
56667;SDS011;42542;48.360;10.958;2023-02-17T12:12:16;9.88;;;3.08;;
56667;SDS011;42542;48.360;10.958;2023-02-17T12:15:28;7.60;;;2.92;;
56667;SDS011;42542;48.360;10.958;2023-02-17T12:35:33;9.48;;;2.92;;
56667;SDS011;42542;48.360;10.958;2023-02-17T12:38:45;8.52;;;3.00;;
56667;SDS011;42542;48.360;10.958;2023-02-17T12:41:55;9.33;;;2.90;;
56667;SDS011;42542;48.360;10.958;2023-02-17T12:45:04;8.38;;;2.92;;
56667;SDS011;42542;48.360;10.958;2023-02-17T12:48:36;8.80;;;2.70;;
56667;SDS011;42542;48.360;10.958;2023-02-17T12:54:47;9.40;;;2.93;;
56667;SDS011;42542;48.360;10.958;2023-02-17T12:57:58;9.73;;;3.10;;
56667;SDS011;42542;48.360;10.958;2023-02-17T13:01:05;7.78;;;2.55;;
56667;SDS011;42542;48.360;10.958;2023-02-17T13:04:14;8.90;;;2.85;;
56667;SDS011;42542;48.360;10.958;2023-02-17T13:07:36;8.37;;;3.20;;
56667;SDS011;42542;48.360;10.958;2023-02-17T13:10:44;8.45;;;2.60;;
56667;SDS011;42542;48.360;10.958;2023-02-17T13:13:46;9.93;;;2.88;;
56667;SDS011;42542;48.360;10.958;2023-02-17T13:16:48;7.45;;;2.78;;
56667;SDS011;42542;48.360;10.958;2023-02-17T13:23:12;7.68;;;2.50;;
56667;SDS011;42542;48.360;10.958;2023-02-17T13:29:32;7.20;;;3.07;;
56667;SDS011;42542;48.360;10.958;2023-02-17T13:32:37;9.52;;;2.92;;
56667;SDS011;42542;48.360;10.958;2023-02-17T13:35:39;9.25;;;2.80;;
56667;SDS011;42542;48.360;10.958;2023-02-17T13:38:50;10.48;;;3.00;;
56667;SDS011;42542;48.360;10.958;2023-02-17T13:41:57;8.40;;;3.07;;
56667;SDS011;42542;48.360;10.958;2023-02-17T13:45:01;8.15;;;2.90;;
56667;SDS011;42542;48.360;10.958;2023-02-17T13:51:25;10.45;;;3.00;;
56667;SDS011;42542;48.360;10.958;2023-02-17T13:54:30;7.63;;;2.87;;
56667;SDS011;42542;48.360;10.958;2023-02-17T13:57:35;8.02;;;2.83;;
56667;SDS011;42542;48.360;10.958;2023-02-17T14:00:37;7.60;;;3.08;;
56667;SDS011;42542;48.360;10.958;2023-02-17T14:03:45;8.80;;;2.95;;
56667;SDS011;42542;48.360;10.958;2023-02-17T14:06:51;7.23;;;2.63;;
56667;SDS011;42542;48.360;10.958;2023-02-17T14:09:56;8.07;;;2.92;;
56667;SDS011;42542;48.360;10.958;2023-02-17T14:12:58;7.32;;;2.65;;
56667;SDS011;42542;48.360;10.958;2023-02-17T14:16:00;9.63;;;3.30;;
56667;SDS011;42542;48.360;10.958;2023-02-17T14:19:13;8.00;;;2.80;;
56667;SDS011;42542;48.360;10.958;2023-02-17T14:22:27;7.82;;;2.80;;
56667;SDS011;42542;48.360;10.958;2023-02-17T14:25:35;8.20;;;2.80;;
56667;SDS011;42542;48.360;10.958;2023-02-17T14:28:38;7.80;;;2.67;;
56667;SDS011;42542;48.360;10.958;2023-02-17T14:31:44;7.07;;;2.73;;
56667;SDS011;42542;48.360;10.958;2023-02-17T14:34:48;8.50;;;2.70;;
56667;SDS011;42542;48.360;10.958;2023-02-17T14:37:50;9.32;;;2.95;;
56667;SDS011;42542;48.360;10.958;2023-02-17T14:40:51;9.13;;;2.88;;
56667;SDS011;42542;48.360;10.958;2023-02-17T14:43:56;8.18;;;2.88;;
56667;SDS011;42542;48.360;10.958;2023-02-17T14:46:58;7.57;;;3.10;;
56667;SDS011;42542;48.360;10.958;2023-02-17T14:50:00;8.07;;;2.90;;
56667;SDS011;42542;48.360;10.958;2023-02-17T14:53:02;10.37;;;3.50;;
56667;SDS011;42542;48.360;10.958;2023-02-17T14:56:20;10.10;;;2.83;;
56667;SDS011;42542;48.360;10.958;2023-02-17T14:59:25;8.95;;;2.83;;
56667;SDS011;42542;48.360;10.958;2023-02-17T15:02:27;7.13;;;2.70;;
56667;SDS011;42542;48.360;10.958;2023-02-17T15:05:30;7.43;;;2.60;;
56667;SDS011;42542;48.360;10.958;2023-02-17T15:08:33;10.48;;;2.97;;
56667;SDS011;42542;48.360;10.958;2023-02-17T15:11:36;7.07;;;2.72;;
56667;SDS011;42542;48.360;10.958;2023-02-17T15:14:39;8.48;;;3.08;;
56667;SDS011;42542;48.360;10.958;2023-02-17T15:17:41;9.07;;;3.28;;
56667;SDS011;42542;48.360;10.958;2023-02-17T15:20:45;11.85;;;3.25;;
56667;SDS011;42542;48.360;10.958;2023-02-17T15:23:50;8.93;;;2.83;;
56667;SDS011;42542;48.360;10.958;2023-02-17T15:26:52;9.33;;;3.23;;
56667;SDS011;42542;48.360;10.958;2023-02-17T15:29:54;8.35;;;2.72;;
56667;SDS011;42542;48.360;10.958;2023-02-17T15:32:57;8.85;;;3.05;;
56667;SDS011;42542;48.360;10.958;2023-02-17T15:35:59;7.82;;;2.95;;
56667;SDS011;42542;48.360;10.958;2023-02-17T15:39:02;8.30;;;3.10;;
56667;SDS011;42542;48.360;10.958;2023-02-17T15:42:04;9.52;;;3.13;;
56667;SDS011;42542;48.360;10.958;2023-02-17T15:45:13;11.48;;;3.70;;
56667;SDS011;42542;48.360;10.958;2023-02-17T15:48:22;10.88;;;3.13;;
56667;SDS011;42542;48.360;10.958;2023-02-17T15:51:26;9.00;;;2.93;;
56667;SDS011;42542;48.360;10.958;2023-02-17T15:54:28;7.50;;;3.00;;
56667;SDS011;42542;48.360;10.958;2023-02-17T15:57:29;8.05;;;3.00;;
56667;SDS011;42542;48.360;10.958;2023-02-17T16:00:32;7.93;;;3.15;;
56667;SDS011;42542;48.360;10.958;2023-02-17T16:03:36;9.60;;;3.30;;
56667;SDS011;42542;48.360;10.958;2023-02-17T16:06:38;8.65;;;3.33;;
56667;SDS011;42542;48.360;10.958;2023-02-17T16:09:40;9.65;;;3.50;;
56667;SDS011;42542;48.360;10.958;2023-02-17T16:12:43;12.50;;;3.50;;
56667;SDS011;42542;48.360;10.958;2023-02-17T16:15:46;9.68;;;3.10;;
56667;SDS011;42542;48.360;10.958;2023-02-17T16:18:49;12.50;;;3.40;;
56667;SDS011;42542;48.360;10.958;2023-02-17T16:21:51;10.90;;;3.30;;
56667;SDS011;42542;48.360;10.958;2023-02-17T16:24:54;9.47;;;3.73;;
56667;SDS011;42542;48.360;10.958;2023-02-17T16:27:55;10.82;;;3.00;;
56667;SDS011;42542;48.360;10.958;2023-02-17T16:30:57;10.80;;;3.40;;
56667;SDS011;42542;48.360;10.958;2023-02-17T16:33:59;11.33;;;3.33;;
56667;SDS011;42542;48.360;10.958;2023-02-17T16:37:02;7.57;;;3.00;;
56667;SDS011;42542;48.360;10.958;2023-02-17T16:40:14;9.52;;;3.40;;
56667;SDS011;42542;48.360;10.958;2023-02-17T16:43:21;9.00;;;3.33;;
56667;SDS011;42542;48.360;10.958;2023-02-17T16:46:28;8.30;;;2.90;;
56667;SDS011;42542;48.360;10.958;2023-02-17T16:49:33;9.05;;;3.38;;
56667;SDS011;42542;48.360;10.958;2023-02-17T16:52:40;8.82;;;3.58;;
56667;SDS011;42542;48.360;10.958;2023-02-17T16:55:41;12.27;;;4.83;;
56667;SDS011;42542;48.360;10.958;2023-02-17T16:58:43;9.07;;;3.17;;
56667;SDS011;42542;48.360;10.958;2023-02-17T17:01:45;9.13;;;3.47;;
56667;SDS011;42542;48.360;10.958;2023-02-17T17:04:47;8.93;;;3.17;;
56667;SDS011;42542;48.360;10.958;2023-02-17T17:07:49;12.77;;;3.53;;
56667;SDS011;42542;48.360;10.958;2023-02-17T17:10:51;7.35;;;2.92;;
56667;SDS011;42542;48.360;10.958;2023-02-17T17:13:53;9.23;;;3.30;;
56667;SDS011;42542;48.360;10.958;2023-02-17T17:16:56;10.87;;;3.40;;
56667;SDS011;42542;48.360;10.958;2023-02-17T17:20:01;7.30;;;2.90;;
56667;SDS011;42542;48.360;10.958;2023-02-17T17:23:03;11.98;;;3.40;;
56667;SDS011;42542;48.360;10.958;2023-02-17T17:26:13;8.70;;;3.15;;
56667;SDS011;42542;48.360;10.958;2023-02-17T17:29:20;8.40;;;3.10;;
56667;SDS011;42542;48.360;10.958;2023-02-17T17:32:22;8.93;;;2.92;;
56667;SDS011;42542;48.360;10.958;2023-02-17T17:35:25;8.07;;;3.10;;
56667;SDS011;42542;48.360;10.958;2023-02-17T17:38:27;9.83;;;3.20;;
56667;SDS011;42542;48.360;10.958;2023-02-17T17:41:28;9.40;;;3.53;;
56667;SDS011;42542;48.360;10.958;2023-02-17T17:44:30;10.73;;;3.40;;
56667;SDS011;42542;48.360;10.958;2023-02-17T17:47:32;9.23;;;3.43;;
56667;SDS011;42542;48.360;10.958;2023-02-17T17:50:33;8.63;;;3.60;;
56667;SDS011;42542;48.360;10.958;2023-02-17T17:53:35;10.77;;;3.60;;
56667;SDS011;42542;48.360;10.958;2023-02-17T17:56:38;9.15;;;3.30;;
56667;SDS011;42542;48.360;10.958;2023-02-17T17:59:43;8.30;;;3.22;;
56667;SDS011;42542;48.360;10.958;2023-02-17T18:02:45;9.30;;;3.20;;
56667;SDS011;42542;48.360;10.958;2023-02-17T18:05:46;8.95;;;3.63;;
56667;SDS011;42542;48.360;10.958;2023-02-17T18:08:48;9.27;;;3.27;;
56667;SDS011;42542;48.360;10.958;2023-02-17T18:11:51;9.15;;;3.10;;
56667;SDS011;42542;48.360;10.958;2023-02-17T18:14:54;9.15;;;4.00;;
56667;SDS011;42542;48.360;10.958;2023-02-17T18:17:56;10.60;;;3.50;;
56667;SDS011;42542;48.360;10.958;2023-02-17T18:20:57;9.25;;;3.38;;
56667;SDS011;42542;48.360;10.958;2023-02-17T18:23:59;9.68;;;3.45;;
56667;SDS011;42542;48.360;10.958;2023-02-17T18:27:01;9.35;;;3.20;;
56667;SDS011;42542;48.360;10.958;2023-02-17T18:30:03;11.80;;;3.90;;
56667;SDS011;42542;48.360;10.958;2023-02-17T18:33:06;10.32;;;3.55;;
56667;SDS011;42542;48.360;10.958;2023-02-17T18:36:11;10.38;;;3.63;;
56667;SDS011;42542;48.360;10.958;2023-02-17T18:39:16;9.23;;;3.73;;
56667;SDS011;42542;48.360;10.958;2023-02-17T18:42:18;8.77;;;3.20;;
56667;SDS011;42542;48.360;10.958;2023-02-17T18:45:20;10.98;;;3.50;;
56667;SDS011;42542;48.360;10.958;2023-02-17T18:48:21;8.27;;;3.30;;
56667;SDS011;42542;48.360;10.958;2023-02-17T18:51:23;9.05;;;3.42;;
56667;SDS011;42542;48.360;10.958;2023-02-17T18:54:27;8.73;;;3.22;;
56667;SDS011;42542;48.360;10.958;2023-02-17T18:57:29;10.82;;;3.65;;
56667;SDS011;42542;48.360;10.958;2023-02-17T19:00:32;10.68;;;3.33;;
56667;SDS011;42542;48.360;10.958;2023-02-17T19:03:34;8.95;;;3.58;;
56667;SDS011;42542;48.360;10.958;2023-02-17T19:06:36;8.65;;;3.35;;
56667;SDS011;42542;48.360;10.958;2023-02-17T19:09:40;10.83;;;3.17;;
56667;SDS011;42542;48.360;10.958;2023-02-17T19:12:42;9.13;;;3.30;;
56667;SDS011;42542;48.360;10.958;2023-02-17T19:15:44;7.68;;;3.00;;
56667;SDS011;42542;48.360;10.958;2023-02-17T19:18:45;7.73;;;3.10;;
56667;SDS011;42542;48.360;10.958;2023-02-17T19:21:47;8.57;;;3.03;;
56667;SDS011;42542;48.360;10.958;2023-02-17T19:24:50;9.40;;;3.17;;
56667;SDS011;42542;48.360;10.958;2023-02-17T19:27:53;9.43;;;3.30;;
56667;SDS011;42542;48.360;10.958;2023-02-17T19:30:55;9.93;;;3.08;;
56667;SDS011;42542;48.360;10.958;2023-02-17T19:33:57;8.88;;;3.60;;
56667;SDS011;42542;48.360;10.958;2023-02-17T19:36:59;9.15;;;3.10;;
56667;SDS011;42542;48.360;10.958;2023-02-17T19:40:01;9.27;;;2.97;;
56667;SDS011;42542;48.360;10.958;2023-02-17T19:43:03;9.20;;;3.05;;
56667;SDS011;42542;48.360;10.958;2023-02-17T19:46:04;10.60;;;3.22;;